Terminal Aerodrome Forecast
Issued by NWS

Home | Current Version | Previous Version | Text Only | Print | Product List | Glossary Off
Versions: 1 2 3 4 5 6 7 8 9 10 11 12 13 14 15 16 17 18 19 20 21

939
FTUS43 KOAX 171720
TAFCDR
TAF
KCDR 171720Z 1718/1818 24007KT P6SM SKC
     FM172100 11008KT P6SM SCT090
     FM180200 16010KT P6SM BKN090
     FM180700 01006KT P6SM SCT090=

USA.gov is the U.S. government's official web portal to all federal, state and local government web resources and services.